Pendleton, TX (76564)

8:51 AM CST on December 19, 2014 (GMT -0600)
RAWS TEMPLE TX US | Change Station
CLOSE
Current Station
Personal Weather Station
Location: Heidenheimer, TX
Elevation: 573 ft
Nearby Weather Stations

Elev 573 ft 31.06 °N, 97.35 °W | Updated 47 minutes ago

Overcast
Overcast
47 °F
Feels Like 41 °F
N
16
Wind Variable Wind from NE
Gusts 22.0 mph

Today
High -- | Low -- °F
--% Chance of Precip.
Yesterday
High -- | Low -- °F
Precip. -- in
7:22 AM 5:29 PM
Waning Crescent, 7% visible
Pressure 30.12 in
Visibility 6.0 miles
Clouds Overcast 500 ft
Windchill 41 °F
Dew Point 46 °F
Humidity 96%
Rainfall 0.29 in
Snow Depth Not available.
UV 0 out of 12
Pollen 5.80 out of 12
Air Quality Not available.
Flu Activity Not available.
METAR KTPL 191435Z AUTO 36006KT 6SM OVC005 09/06 A3012 RMK AO1

More Conditions Fewer Conditions

Pressure 30.12 in
Visibility 6.0 miles
Clouds Overcast 500 ft
Windchill 41 °F
Dew Point 46 °F
Humidity 96%
Rainfall 0.29 in
Snow Depth Not available.
UV 0 out of 12
Pollen 5.80 out of 12
Air Quality Not available.
Flu Activity Not available.
METAR KTPL 191435Z AUTO 36006KT 6SM OVC005 09/06 A3012 RMK AO1

More Conditions Fewer Conditions

Nowcast | as of 8:02 am CST on December 19, 2014

Scattered showers will continue through mid morning...mainly east of a Gainesville to Dallas to Lampasas line. Elsewhere...mostly cloudy skies and areas of drizzle will continue. Temperatures through mid morning will remain cool with readings in the low to mid 40s.

×

10-Day Weather Forecast

Almanac

Astronomy

Dec. 19, 2014 Rise Set
Actual Time
Civil Twilight
Nautical Twilight
Astronomical Twilight
Moon
Length of Visible Light
Length of Day
Tomorrow will be .
, % of the Moon is Illuminated

Today's Extremes

State Highs State Lows

Community

WunderPhotos

Upload Photos

1,778,988 photos uploaded!

WunderBlogs® & News

Nearby

Air Quality

  Air Quality AQ Index Pollutant
Not available.

Snow Depth

Station Depth Elevation

Earthquake Activity

City Distance Mag. Time & Date
Minimum magnitude displayed is 2.5.

Coastal Water Temperatures

Place Temperature

Nearby Weather Stations